sensor_id;sensor_type;location;lat;lon;timestamp;P1;durP1;ratioP1;P2;durP2;ratioP2
5987;SDS011;3021;51.000;6.980;2023-11-18T00:00:18;815.03;;;344.05;;
5987;SDS011;3021;51.000;6.980;2023-11-18T00:02:43;810.38;;;334.23;;
5987;SDS011;3021;51.000;6.980;2023-11-18T00:05:09;813.67;;;336.63;;
5987;SDS011;3021;51.000;6.980;2023-11-18T00:07:38;818.45;;;340.65;;
5987;SDS011;3021;51.000;6.980;2023-11-18T00:10:04;815.15;;;336.60;;
5987;SDS011;3021;51.000;6.980;2023-11-18T00:12:31;814.65;;;338.52;;
5987;SDS011;3021;51.000;6.980;2023-11-18T00:14:59;811.63;;;333.20;;
5987;SDS011;3021;51.000;6.980;2023-11-18T00:17:24;817.20;;;338.17;;
5987;SDS011;3021;51.000;6.980;2023-11-18T00:19:50;818.23;;;339.63;;
5987;SDS011;3021;51.000;6.980;2023-11-18T00:22:15;816.00;;;342.15;;
5987;SDS011;3021;51.000;6.980;2023-11-18T00:24:40;817.63;;;346.40;;
5987;SDS011;3021;51.000;6.980;2023-11-18T00:27:06;812.90;;;348.13;;
5987;SDS011;3021;51.000;6.980;2023-11-18T00:29:34;812.00;;;343.10;;
5987;SDS011;3021;51.000;6.980;2023-11-18T00:32:00;813.55;;;346.23;;
5987;SDS011;3021;51.000;6.980;2023-11-18T00:34:27;811.83;;;343.45;;
5987;SDS011;3021;51.000;6.980;2023-11-18T00:36:54;812.70;;;343.80;;
5987;SDS011;3021;51.000;6.980;2023-11-18T00:39:21;811.33;;;341.70;;
5987;SDS011;3021;51.000;6.980;2023-11-18T00:41:46;811.03;;;343.70;;
5987;SDS011;3021;51.000;6.980;2023-11-18T00:44:11;816.87;;;347.37;;
5987;SDS011;3021;51.000;6.980;2023-11-18T00:46:38;815.00;;;348.48;;
5987;SDS011;3021;51.000;6.980;2023-11-18T00:49:04;812.00;;;341.60;;
5987;SDS011;3021;51.000;6.980;2023-11-18T00:51:30;810.13;;;333.98;;
5987;SDS011;3021;51.000;6.980;2023-11-18T00:53:55;811.73;;;337.13;;
5987;SDS011;3021;51.000;6.980;2023-11-18T00:56:21;807.00;;;328.27;;
5987;SDS011;3021;51.000;6.980;2023-11-18T00:58:47;800.70;;;317.03;;
5987;SDS011;3021;51.000;6.980;2023-11-18T01:01:15;804.60;;;323.15;;
5987;SDS011;3021;51.000;6.980;2023-11-18T01:03:43;809.53;;;321.85;;
5987;SDS011;3021;51.000;6.980;2023-11-18T01:06:09;808.95;;;322.60;;
5987;SDS011;3021;51.000;6.980;2023-11-18T01:08:34;810.53;;;323.88;;
5987;SDS011;3021;51.000;6.980;2023-11-18T01:10:59;807.00;;;320.83;;
5987;SDS011;3021;51.000;6.980;2023-11-18T01:13:25;809.40;;;324.77;;
5987;SDS011;3021;51.000;6.980;2023-11-18T01:15:54;807.40;;;314.30;;
5987;SDS011;3021;51.000;6.980;2023-11-18T01:18:20;808.03;;;323.45;;
5987;SDS011;3021;51.000;6.980;2023-11-18T01:20:45;807.43;;;319.50;;
5987;SDS011;3021;51.000;6.980;2023-11-18T01:23:12;808.65;;;328.30;;
5987;SDS011;3021;51.000;6.980;2023-11-18T01:25:37;807.65;;;328.33;;
5987;SDS011;3021;51.000;6.980;2023-11-18T01:28:02;806.17;;;329.03;;
5987;SDS011;3021;51.000;6.980;2023-11-18T01:30:29;807.25;;;328.67;;
5987;SDS011;3021;51.000;6.980;2023-11-18T01:32:54;806.53;;;331.73;;
5987;SDS011;3021;51.000;6.980;2023-11-18T01:35:19;809.95;;;337.55;;
5987;SDS011;3021;51.000;6.980;2023-11-18T01:37:45;809.23;;;336.13;;
5987;SDS011;3021;51.000;6.980;2023-11-18T01:40:10;809.10;;;333.63;;
5987;SDS011;3021;51.000;6.980;2023-11-18T01:42:43;808.83;;;339.70;;
5987;SDS011;3021;51.000;6.980;2023-11-18T01:45:11;809.47;;;345.08;;
5987;SDS011;3021;51.000;6.980;2023-11-18T01:47:41;812.38;;;347.35;;
5987;SDS011;3021;51.000;6.980;2023-11-18T01:50:07;811.37;;;348.73;;
5987;SDS011;3021;51.000;6.980;2023-11-18T01:52:36;812.88;;;354.75;;
5987;SDS011;3021;51.000;6.980;2023-11-18T01:55:02;812.17;;;354.25;;
5987;SDS011;3021;51.000;6.980;2023-11-18T01:57:31;814.75;;;360.92;;
5987;SDS011;3021;51.000;6.980;2023-11-18T01:59:58;816.45;;;360.40;;
5987;SDS011;3021;51.000;6.980;2023-11-18T02:02:23;815.60;;;366.00;;
5987;SDS011;3021;51.000;6.980;2023-11-18T02:04:50;815.20;;;366.80;;
5987;SDS011;3021;51.000;6.980;2023-11-18T02:07:15;811.73;;;362.30;;
5987;SDS011;3021;51.000;6.980;2023-11-18T02:09:41;808.93;;;359.50;;
5987;SDS011;3021;51.000;6.980;2023-11-18T02:14:37;810.17;;;352.65;;
5987;SDS011;3021;51.000;6.980;2023-11-18T02:17:04;809.65;;;344.88;;
5987;SDS011;3021;51.000;6.980;2023-11-18T02:19:30;811.38;;;351.95;;
5987;SDS011;3021;51.000;6.980;2023-11-18T02:21:58;812.45;;;359.10;;
5987;SDS011;3021;51.000;6.980;2023-11-18T02:24:26;810.20;;;348.27;;
5987;SDS011;3021;51.000;6.980;2023-11-18T02:27:02;810.15;;;345.60;;
5987;SDS011;3021;51.000;6.980;2023-11-18T02:29:37;811.80;;;353.20;;
5987;SDS011;3021;51.000;6.980;2023-11-18T02:32:13;812.47;;;352.77;;
5987;SDS011;3021;51.000;6.980;2023-11-18T02:37:36;804.85;;;343.58;;
5987;SDS011;3021;51.000;6.980;2023-11-18T02:40:07;810.28;;;346.38;;
5987;SDS011;3021;51.000;6.980;2023-11-18T02:42:39;807.83;;;345.08;;
5987;SDS011;3021;51.000;6.980;2023-11-18T02:45:10;803.50;;;340.10;;
5987;SDS011;3021;51.000;6.980;2023-11-18T02:47:41;808.03;;;340.45;;
5987;SDS011;3021;51.000;6.980;2023-11-18T02:50:09;809.55;;;332.65;;
5987;SDS011;3021;51.000;6.980;2023-11-18T02:52:36;806.70;;;336.52;;
5987;SDS011;3021;51.000;6.980;2023-11-18T02:55:03;803.90;;;331.77;;
5987;SDS011;3021;51.000;6.980;2023-11-18T02:57:31;804.45;;;339.13;;
5987;SDS011;3021;51.000;6.980;2023-11-18T02:59:57;804.53;;;339.05;;
5987;SDS011;3021;51.000;6.980;2023-11-18T03:02:25;808.37;;;335.07;;
5987;SDS011;3021;51.000;6.980;2023-11-18T03:04:55;807.95;;;341.55;;
5987;SDS011;3021;51.000;6.980;2023-11-18T03:07:20;810.77;;;344.13;;
5987;SDS011;3021;51.000;6.980;2023-11-18T03:09:46;807.47;;;342.27;;
5987;SDS011;3021;51.000;6.980;2023-11-18T03:12:12;807.40;;;341.60;;
5987;SDS011;3021;51.000;6.980;2023-11-18T03:14:37;806.30;;;337.13;;
5987;SDS011;3021;51.000;6.980;2023-11-18T03:17:03;806.70;;;337.30;;
5987;SDS011;3021;51.000;6.980;2023-11-18T03:19:31;805.85;;;336.83;;
5987;SDS011;3021;51.000;6.980;2023-11-18T03:22:00;805.97;;;339.77;;
5987;SDS011;3021;51.000;6.980;2023-11-18T03:24:26;811.60;;;345.67;;
5987;SDS011;3021;51.000;6.980;2023-11-18T03:26:51;803.37;;;328.20;;
5987;SDS011;3021;51.000;6.980;2023-11-18T03:29:16;805.70;;;331.93;;
5987;SDS011;3021;51.000;6.980;2023-11-18T03:31:42;804.17;;;329.13;;
5987;SDS011;3021;51.000;6.980;2023-11-18T03:34:09;806.35;;;332.48;;
5987;SDS011;3021;51.000;6.980;2023-11-18T03:36:35;802.33;;;332.60;;
5987;SDS011;3021;51.000;6.980;2023-11-18T03:39:00;800.83;;;329.73;;
5987;SDS011;3021;51.000;6.980;2023-11-18T03:41:26;808.35;;;341.58;;
5987;SDS011;3021;51.000;6.980;2023-11-18T03:43:52;806.92;;;340.48;;
5987;SDS011;3021;51.000;6.980;2023-11-18T03:46:17;808.40;;;343.58;;
5987;SDS011;3021;51.000;6.980;2023-11-18T03:48:43;806.70;;;347.63;;
5987;SDS011;3021;51.000;6.980;2023-11-18T03:51:09;806.17;;;341.38;;
5987;SDS011;3021;51.000;6.980;2023-11-18T03:53:34;807.77;;;346.60;;
5987;SDS011;3021;51.000;6.980;2023-11-18T03:56:00;806.43;;;340.90;;
5987;SDS011;3021;51.000;6.980;2023-11-18T03:58:27;810.53;;;351.48;;
5987;SDS011;3021;51.000;6.980;2023-11-18T04:00:52;809.83;;;355.25;;
5987;SDS011;3021;51.000;6.980;2023-11-18T04:03:18;808.42;;;350.08;;
5987;SDS011;3021;51.000;6.980;2023-11-18T04:05:44;808.57;;;353.33;;
5987;SDS011;3021;51.000;6.980;2023-11-18T04:08:09;811.77;;;351.57;;
5987;SDS011;3021;51.000;6.980;2023-11-18T04:10:36;809.60;;;350.17;;
5987;SDS011;3021;51.000;6.980;2023-11-18T04:13:02;810.00;;;353.00;;
5987;SDS011;3021;51.000;6.980;2023-11-18T04:15:27;808.47;;;345.60;;
5987;SDS011;3021;51.000;6.980;2023-11-18T04:17:53;807.53;;;343.90;;
5987;SDS011;3021;51.000;6.980;2023-11-18T04:20:18;805.50;;;337.67;;
5987;SDS011;3021;51.000;6.980;2023-11-18T04:22:43;806.97;;;340.33;;
5987;SDS011;3021;51.000;6.980;2023-11-18T04:25:10;803.73;;;336.37;;
5987;SDS011;3021;51.000;6.980;2023-11-18T04:27:39;807.65;;;338.75;;
5987;SDS011;3021;51.000;6.980;2023-11-18T04:30:04;803.27;;;337.23;;
5987;SDS011;3021;51.000;6.980;2023-11-18T04:32:30;805.25;;;333.92;;
5987;SDS011;3021;51.000;6.980;2023-11-18T04:34:59;803.97;;;330.98;;
5987;SDS011;3021;51.000;6.980;2023-11-18T04:37:25;803.85;;;327.35;;
5987;SDS011;3021;51.000;6.980;2023-11-18T04:39:50;805.73;;;331.90;;
5987;SDS011;3021;51.000;6.980;2023-11-18T04:42:16;809.30;;;334.13;;
5987;SDS011;3021;51.000;6.980;2023-11-18T04:44:41;804.10;;;333.73;;
5987;SDS011;3021;51.000;6.980;2023-11-18T04:47:07;808.60;;;337.10;;
5987;SDS011;3021;51.000;6.980;2023-11-18T04:49:32;805.83;;;336.57;;
5987;SDS011;3021;51.000;6.980;2023-11-18T04:51:57;811.88;;;339.17;;
5987;SDS011;3021;51.000;6.980;2023-11-18T04:54:24;803.05;;;327.98;;
5987;SDS011;3021;51.000;6.980;2023-11-18T04:56:49;807.00;;;334.90;;
5987;SDS011;3021;51.000;6.980;2023-11-18T04:59:14;807.03;;;331.47;;
5987;SDS011;3021;51.000;6.980;2023-11-18T05:01:40;808.40;;;334.33;;
5987;SDS011;3021;51.000;6.980;2023-11-18T05:04:05;809.53;;;345.83;;
5987;SDS011;3021;51.000;6.980;2023-11-18T05:06:33;807.63;;;343.33;;
5987;SDS011;3021;51.000;6.980;2023-11-18T05:08:58;803.13;;;336.40;;
5987;SDS011;3021;51.000;6.980;2023-11-18T05:11:23;806.47;;;342.52;;
5987;SDS011;3021;51.000;6.980;2023-11-18T05:13:49;804.03;;;342.53;;
5987;SDS011;3021;51.000;6.980;2023-11-18T05:16:14;803.57;;;338.50;;
5987;SDS011;3021;51.000;6.980;2023-11-18T05:18:40;804.83;;;339.40;;
5987;SDS011;3021;51.000;6.980;2023-11-18T05:21:05;804.23;;;335.63;;
5987;SDS011;3021;51.000;6.980;2023-11-18T05:23:33;802.65;;;336.50;;
5987;SDS011;3021;51.000;6.980;2023-11-18T05:25:59;803.25;;;334.15;;
5987;SDS011;3021;51.000;6.980;2023-11-18T05:28:24;798.93;;;329.70;;
5987;SDS011;3021;51.000;6.980;2023-11-18T05:30:50;805.50;;;337.50;;
5987;SDS011;3021;51.000;6.980;2023-11-18T05:33:19;804.03;;;338.10;;
5987;SDS011;3021;51.000;6.980;2023-11-18T05:35:45;800.25;;;337.00;;
5987;SDS011;3021;51.000;6.980;2023-11-18T05:38:17;800.95;;;340.08;;
5987;SDS011;3021;51.000;6.980;2023-11-18T05:40:52;801.20;;;337.70;;
5987;SDS011;3021;51.000;6.980;2023-11-18T05:43:24;800.42;;;339.30;;
5987;SDS011;3021;51.000;6.980;2023-11-18T05:45:54;803.40;;;341.33;;
5987;SDS011;3021;51.000;6.980;2023-11-18T05:48:38;801.63;;;338.08;;
5987;SDS011;3021;51.000;6.980;2023-11-18T05:51:04;804.08;;;342.23;;
5987;SDS011;3021;51.000;6.980;2023-11-18T05:53:30;803.10;;;341.83;;
5987;SDS011;3021;51.000;6.980;2023-11-18T05:55:56;804.67;;;341.43;;
5987;SDS011;3021;51.000;6.980;2023-11-18T05:58:21;799.87;;;335.97;;
5987;SDS011;3021;51.000;6.980;2023-11-18T06:00:47;799.97;;;338.83;;
5987;SDS011;3021;51.000;6.980;2023-11-18T06:03:12;801.63;;;334.77;;
5987;SDS011;3021;51.000;6.980;2023-11-18T06:05:38;800.47;;;338.17;;
5987;SDS011;3021;51.000;6.980;2023-11-18T06:08:03;800.63;;;338.50;;
5987;SDS011;3021;51.000;6.980;2023-11-18T06:10:29;801.70;;;335.67;;
5987;SDS011;3021;51.000;6.980;2023-11-18T06:12:57;799.58;;;341.35;;
5987;SDS011;3021;51.000;6.980;2023-11-18T06:15:23;800.60;;;342.17;;
5987;SDS011;3021;51.000;6.980;2023-11-18T06:17:48;800.73;;;338.83;;
5987;SDS011;3021;51.000;6.980;2023-11-18T06:20:14;803.43;;;344.30;;
5987;SDS011;3021;51.000;6.980;2023-11-18T06:22:39;800.07;;;339.97;;
5987;SDS011;3021;51.000;6.980;2023-11-18T06:25:05;804.37;;;352.17;;
5987;SDS011;3021;51.000;6.980;2023-11-18T06:27:32;803.55;;;348.15;;
5987;SDS011;3021;51.000;6.980;2023-11-18T06:29:58;802.20;;;344.43;;
5987;SDS011;3021;51.000;6.980;2023-11-18T06:32:23;805.50;;;352.67;;
5987;SDS011;3021;51.000;6.980;2023-11-18T06:34:51;803.35;;;348.67;;
5987;SDS011;3021;51.000;6.980;2023-11-18T06:37:17;803.45;;;348.20;;
5987;SDS011;3021;51.000;6.980;2023-11-18T06:39:42;804.30;;;353.73;;
5987;SDS011;3021;51.000;6.980;2023-11-18T06:42:10;802.95;;;349.30;;
5987;SDS011;3021;51.000;6.980;2023-11-18T06:44:37;799.42;;;342.77;;
5987;SDS011;3021;51.000;6.980;2023-11-18T06:47:02;801.70;;;345.48;;
5987;SDS011;3021;51.000;6.980;2023-11-18T06:49:30;799.72;;;341.95;;
5987;SDS011;3021;51.000;6.980;2023-11-18T06:51:59;798.42;;;332.20;;
5987;SDS011;3021;51.000;6.980;2023-11-18T06:54:28;799.00;;;341.88;;
5987;SDS011;3021;51.000;6.980;2023-11-18T06:56:53;801.03;;;343.17;;
5987;SDS011;3021;51.000;6.980;2023-11-18T06:59:18;798.77;;;342.83;;
5987;SDS011;3021;51.000;6.980;2023-11-18T07:01:44;800.07;;;345.30;;
5987;SDS011;3021;51.000;6.980;2023-11-18T07:04:09;802.60;;;356.97;;
5987;SDS011;3021;51.000;6.980;2023-11-18T07:06:40;800.38;;;350.35;;
5987;SDS011;3021;51.000;6.980;2023-11-18T07:09:07;800.38;;;353.92;;
5987;SDS011;3021;51.000;6.980;2023-11-18T07:11:42;804.75;;;354.60;;
5987;SDS011;3021;51.000;6.980;2023-11-18T07:14:09;801.38;;;352.40;;
5987;SDS011;3021;51.000;6.980;2023-11-18T07:16:35;805.20;;;357.83;;
5987;SDS011;3021;51.000;6.980;2023-11-18T07:19:03;805.88;;;361.15;;
5987;SDS011;3021;51.000;6.980;2023-11-18T07:21:31;808.63;;;371.80;;
5987;SDS011;3021;51.000;6.980;2023-11-18T07:23:58;805.92;;;365.33;;
5987;SDS011;3021;51.000;6.980;2023-11-18T07:26:24;805.08;;;367.63;;
5987;SDS011;3021;51.000;6.980;2023-11-18T07:28:49;805.30;;;368.23;;
5987;SDS011;3021;51.000;6.980;2023-11-18T07:31:15;806.17;;;367.70;;
5987;SDS011;3021;51.000;6.980;2023-11-18T07:33:43;804.22;;;368.67;;
5987;SDS011;3021;51.000;6.980;2023-11-18T07:36:13;807.13;;;375.45;;
5987;SDS011;3021;51.000;6.980;2023-11-18T07:38:40;807.28;;;377.13;;
5987;SDS011;3021;51.000;6.980;2023-11-18T07:41:06;806.00;;;373.17;;
5987;SDS011;3021;51.000;6.980;2023-11-18T07:43:33;804.05;;;372.90;;
5987;SDS011;3021;51.000;6.980;2023-11-18T07:45:59;807.35;;;372.02;;
5987;SDS011;3021;51.000;6.980;2023-11-18T07:48:24;803.30;;;371.87;;
5987;SDS011;3021;51.000;6.980;2023-11-18T07:50:49;804.55;;;366.33;;
5987;SDS011;3021;51.000;6.980;2023-11-18T07:53:15;805.53;;;370.60;;
5987;SDS011;3021;51.000;6.980;2023-11-18T07:55:41;804.72;;;364.23;;
5987;SDS011;3021;51.000;6.980;2023-11-18T07:58:09;803.38;;;364.90;;
5987;SDS011;3021;51.000;6.980;2023-11-18T08:00:44;802.53;;;364.23;;
5987;SDS011;3021;51.000;6.980;2023-11-18T08:03:10;805.87;;;365.10;;
5987;SDS011;3021;51.000;6.980;2023-11-18T08:05:40;805.13;;;373.00;;
5987;SDS011;3021;51.000;6.980;2023-11-18T08:08:06;805.35;;;375.35;;
5987;SDS011;3021;51.000;6.980;2023-11-18T08:10:36;806.08;;;371.65;;
5987;SDS011;3021;51.000;6.980;2023-11-18T08:13:03;806.17;;;379.65;;
5987;SDS011;3021;51.000;6.980;2023-11-18T08:15:29;805.55;;;384.35;;
5987;SDS011;3021;51.000;6.980;2023-11-18T08:17:56;804.80;;;374.98;;
5987;SDS011;3021;51.000;6.980;2023-11-18T08:20:21;806.67;;;380.03;;
5987;SDS011;3021;51.000;6.980;2023-11-18T08:22:49;806.60;;;381.25;;
5987;SDS011;3021;51.000;6.980;2023-11-18T08:25:15;810.67;;;386.02;;
5987;SDS011;3021;51.000;6.980;2023-11-18T08:27:42;805.55;;;379.67;;
5987;SDS011;3021;51.000;6.980;2023-11-18T08:30:10;805.05;;;385.67;;
5987;SDS011;3021;51.000;6.980;2023-11-18T08:32:37;808.42;;;397.42;;
5987;SDS011;3021;51.000;6.980;2023-11-18T08:35:04;811.58;;;402.65;;
5987;SDS011;3021;51.000;6.980;2023-11-18T08:37:32;810.70;;;398.80;;
5987;SDS011;3021;51.000;6.980;2023-11-18T08:40:00;812.85;;;407.05;;
5987;SDS011;3021;51.000;6.980;2023-11-18T08:42:25;817.97;;;421.88;;
5987;SDS011;3021;51.000;6.980;2023-11-18T08:44:52;815.67;;;418.90;;
5987;SDS011;3021;51.000;6.980;2023-11-18T08:47:20;816.60;;;417.90;;
5987;SDS011;3021;51.000;6.980;2023-11-18T08:49:46;813.85;;;419.27;;
5987;SDS011;3021;51.000;6.980;2023-11-18T08:52:11;816.75;;;427.67;;
5987;SDS011;3021;51.000;6.980;2023-11-18T08:54:38;821.78;;;428.85;;
5987;SDS011;3021;51.000;6.980;2023-11-18T08:57:24;818.53;;;432.65;;
5987;SDS011;3021;51.000;6.980;2023-11-18T08:59:50;821.72;;;442.33;;
5987;SDS011;3021;51.000;6.980;2023-11-18T09:02:19;826.50;;;437.77;;
5987;SDS011;3021;51.000;6.980;2023-11-18T09:04:48;818.13;;;433.17;;
5987;SDS011;3021;51.000;6.980;2023-11-18T09:07:14;821.33;;;431.02;;
5987;SDS011;3021;51.000;6.980;2023-11-18T09:09:40;821.10;;;439.30;;
5987;SDS011;3021;51.000;6.980;2023-11-18T09:12:05;818.70;;;436.03;;
5987;SDS011;3021;51.000;6.980;2023-11-18T09:14:33;817.60;;;430.45;;
5987;SDS011;3021;51.000;6.980;2023-11-18T09:16:58;821.40;;;436.17;;
5987;SDS011;3021;51.000;6.980;2023-11-18T09:19:24;822.75;;;452.67;;
5987;SDS011;3021;51.000;6.980;2023-11-18T09:21:50;825.20;;;454.27;;
5987;SDS011;3021;51.000;6.980;2023-11-18T09:24:17;822.42;;;451.00;;
5987;SDS011;3021;51.000;6.980;2023-11-18T09:26:45;822.30;;;451.53;;
5987;SDS011;3021;51.000;6.980;2023-11-18T09:29:13;823.58;;;446.65;;
5987;SDS011;3021;51.000;6.980;2023-11-18T09:31:42;822.88;;;457.85;;
5987;SDS011;3021;51.000;6.980;2023-11-18T09:34:13;825.50;;;451.80;;
5987;SDS011;3021;51.000;6.980;2023-11-18T09:36:42;823.30;;;453.23;;
5987;SDS011;3021;51.000;6.980;2023-11-18T09:39:10;822.95;;;455.10;;
5987;SDS011;3021;51.000;6.980;2023-11-18T09:41:57;822.13;;;452.10;;
5987;SDS011;3021;51.000;6.980;2023-11-18T09:44:23;825.28;;;454.63;;
5987;SDS011;3021;51.000;6.980;2023-11-18T09:46:52;821.92;;;459.08;;
5987;SDS011;3021;51.000;6.980;2023-11-18T09:49:29;824.40;;;460.30;;
5987;SDS011;3021;51.000;6.980;2023-11-18T09:52:04;829.85;;;469.40;;
5987;SDS011;3021;51.000;6.980;2023-11-18T09:57:37;827.53;;;469.20;;
5987;SDS011;3021;51.000;6.980;2023-11-18T10:00:07;824.25;;;462.48;;
5987;SDS011;3021;51.000;6.980;2023-11-18T10:02:45;829.20;;;476.60;;
5987;SDS011;3021;51.000;6.980;2023-11-18T10:05:12;833.60;;;484.52;;
5987;SDS011;3021;51.000;6.980;2023-11-18T10:07:41;829.53;;;474.25;;
5987;SDS011;3021;51.000;6.980;2023-11-18T10:10:10;830.50;;;483.27;;
5987;SDS011;3021;51.000;6.980;2023-11-18T10:15:10;832.85;;;493.90;;
5987;SDS011;3021;51.000;6.980;2023-11-18T10:17:41;832.90;;;499.83;;
5987;SDS011;3021;51.000;6.980;2023-11-18T10:23:13;832.33;;;483.30;;
5987;SDS011;3021;51.000;6.980;2023-11-18T10:28:21;832.63;;;494.05;;
5987;SDS011;3021;51.000;6.980;2023-11-18T10:31:01;835.50;;;497.60;;
5987;SDS011;3021;51.000;6.980;2023-11-18T10:33:40;833.40;;;502.30;;
5987;SDS011;3021;51.000;6.980;2023-11-18T10:36:21;831.92;;;494.45;;
5987;SDS011;3021;51.000;6.980;2023-11-18T10:38:48;837.97;;;502.23;;
5987;SDS011;3021;51.000;6.980;2023-11-18T10:41:16;833.85;;;501.65;;
5987;SDS011;3021;51.000;6.980;2023-11-18T10:43:43;833.20;;;502.67;;
5987;SDS011;3021;51.000;6.980;2023-11-18T10:46:10;833.72;;;498.52;;
5987;SDS011;3021;51.000;6.980;2023-11-18T10:48:54;831.22;;;497.45;;
5987;SDS011;3021;51.000;6.980;2023-11-18T10:51:20;836.80;;;506.65;;
5987;SDS011;3021;51.000;6.980;2023-11-18T10:53:48;834.92;;;507.15;;
5987;SDS011;3021;51.000;6.980;2023-11-18T10:56:19;837.42;;;513.80;;
5987;SDS011;3021;51.000;6.980;2023-11-18T10:58:49;836.03;;;508.13;;
5987;SDS011;3021;51.000;6.980;2023-11-18T11:01:15;834.95;;;510.27;;
5987;SDS011;3021;51.000;6.980;2023-11-18T11:03:52;837.40;;;508.08;;
5987;SDS011;3021;51.000;6.980;2023-11-18T11:06:20;829.80;;;499.60;;
5987;SDS011;3021;51.000;6.980;2023-11-18T11:08:48;833.30;;;497.35;;
5987;SDS011;3021;51.000;6.980;2023-11-18T11:11:14;833.10;;;498.93;;
5987;SDS011;3021;51.000;6.980;2023-11-18T11:13:46;830.90;;;495.67;;
5987;SDS011;3021;51.000;6.980;2023-11-18T11:16:14;835.05;;;505.90;;
5987;SDS011;3021;51.000;6.980;2023-11-18T11:18:44;833.22;;;502.05;;
5987;SDS011;3021;51.000;6.980;2023-11-18T11:21:19;830.67;;;495.20;;
5987;SDS011;3021;51.000;6.980;2023-11-18T11:29:32;837.40;;;509.73;;
5987;SDS011;3021;51.000;6.980;2023-11-18T11:34:37;837.70;;;511.27;;
5987;SDS011;3021;51.000;6.980;2023-11-18T11:37:07;834.00;;;506.58;;
5987;SDS011;3021;51.000;6.980;2023-11-18T11:39:34;828.47;;;488.00;;
5987;SDS011;3021;51.000;6.980;2023-11-18T11:42:01;829.47;;;483.63;;
5987;SDS011;3021;51.000;6.980;2023-11-18T11:44:28;830.42;;;480.17;;
5987;SDS011;3021;51.000;6.980;2023-11-18T11:46:59;831.78;;;492.38;;
5987;SDS011;3021;51.000;6.980;2023-11-18T11:49:26;826.80;;;476.95;;
5987;SDS011;3021;51.000;6.980;2023-11-18T11:54:37;826.42;;;478.27;;
5987;SDS011;3021;51.000;6.980;2023-11-18T11:57:09;825.10;;;475.38;;
5987;SDS011;3021;51.000;6.980;2023-11-18T12:02:13;828.30;;;481.55;;
5987;SDS011;3021;51.000;6.980;2023-11-18T12:04:50;826.63;;;481.00;;
5987;SDS011;3021;51.000;6.980;2023-11-18T12:07:19;824.33;;;474.55;;
5987;SDS011;3021;51.000;6.980;2023-11-18T12:09:48;825.80;;;477.55;;
5987;SDS011;3021;51.000;6.980;2023-11-18T12:12:19;830.33;;;480.37;;
5987;SDS011;3021;51.000;6.980;2023-11-18T12:14:49;828.05;;;479.00;;
5987;SDS011;3021;51.000;6.980;2023-11-18T12:17:17;828.22;;;481.45;;
5987;SDS011;3021;51.000;6.980;2023-11-18T12:19:53;826.92;;;476.10;;
5987;SDS011;3021;51.000;6.980;2023-11-18T12:22:23;830.00;;;484.13;;
5987;SDS011;3021;51.000;6.980;2023-11-18T12:32:59;827.75;;;489.50;;
5987;SDS011;3021;51.000;6.980;2023-11-18T12:35:29;831.97;;;496.10;;
5987;SDS011;3021;51.000;6.980;2023-11-18T12:49:14;831.15;;;498.27;;
5987;SDS011;3021;51.000;6.980;2023-11-18T12:51:48;830.63;;;496.63;;
5987;SDS011;3021;51.000;6.980;2023-11-18T12:54:14;828.42;;;492.48;;
5987;SDS011;3021;51.000;6.980;2023-11-18T12:56:41;828.08;;;490.85;;
5987;SDS011;3021;51.000;6.980;2023-11-18T12:59:14;828.40;;;487.35;;
5987;SDS011;3021;51.000;6.980;2023-11-18T13:01:42;827.60;;;491.45;;
5987;SDS011;3021;51.000;6.980;2023-11-18T13:04:15;827.33;;;491.20;;
5987;SDS011;3021;51.000;6.980;2023-11-18T13:06:41;832.47;;;495.00;;
5987;SDS011;3021;51.000;6.980;2023-11-18T13:09:07;832.47;;;493.60;;
5987;SDS011;3021;51.000;6.980;2023-11-18T13:11:35;831.53;;;496.00;;
5987;SDS011;3021;51.000;6.980;2023-11-18T13:14:00;841.17;;;506.37;;
5987;SDS011;3021;51.000;6.980;2023-11-18T13:16:28;831.47;;;500.10;;
5987;SDS011;3021;51.000;6.980;2023-11-18T13:18:53;829.08;;;488.52;;
5987;SDS011;3021;51.000;6.980;2023-11-18T13:21:20;829.13;;;490.52;;
5987;SDS011;3021;51.000;6.980;2023-11-18T13:23:48;823.28;;;482.63;;
5987;SDS011;3021;51.000;6.980;2023-11-18T13:26:15;827.13;;;485.48;;
5987;SDS011;3021;51.000;6.980;2023-11-18T13:28:41;827.17;;;482.98;;
5987;SDS011;3021;51.000;6.980;2023-11-18T13:31:08;826.60;;;478.17;;
5987;SDS011;3021;51.000;6.980;2023-11-18T13:33:40;826.67;;;481.27;;
5987;SDS011;3021;51.000;6.980;2023-11-18T13:36:06;826.17;;;481.73;;
5987;SDS011;3021;51.000;6.980;2023-11-18T13:38:35;829.38;;;484.83;;
5987;SDS011;3021;51.000;6.980;2023-11-18T13:41:03;826.15;;;475.13;;
5987;SDS011;3021;51.000;6.980;2023-11-18T13:43:44;826.00;;;480.10;;
5987;SDS011;3021;51.000;6.980;2023-11-18T13:46:13;824.67;;;473.40;;
5987;SDS011;3021;51.000;6.980;2023-11-18T13:48:39;825.13;;;479.45;;
5987;SDS011;3021;51.000;6.980;2023-11-18T13:51:07;829.58;;;492.67;;
5987;SDS011;3021;51.000;6.980;2023-11-18T13:53:37;824.70;;;472.92;;
5987;SDS011;3021;51.000;6.980;2023-11-18T13:56:03;824.40;;;467.97;;
5987;SDS011;3021;51.000;6.980;2023-11-18T13:58:29;821.30;;;459.45;;
5987;SDS011;3021;51.000;6.980;2023-11-18T14:00:55;823.47;;;466.35;;
5987;SDS011;3021;51.000;6.980;2023-11-18T14:03:21;820.25;;;454.98;;
5987;SDS011;3021;51.000;6.980;2023-11-18T14:05:50;822.17;;;452.70;;
5987;SDS011;3021;51.000;6.980;2023-11-18T14:08:17;821.75;;;460.63;;
5987;SDS011;3021;51.000;6.980;2023-11-18T14:10:43;821.77;;;460.33;;
5987;SDS011;3021;51.000;6.980;2023-11-18T14:13:08;818.77;;;459.70;;
5987;SDS011;3021;51.000;6.980;2023-11-18T14:15:37;824.53;;;465.13;;
5987;SDS011;3021;51.000;6.980;2023-11-18T14:18:03;820.00;;;457.77;;
5987;SDS011;3021;51.000;6.980;2023-11-18T14:20:29;820.33;;;458.20;;
5987;SDS011;3021;51.000;6.980;2023-11-18T14:22:56;821.25;;;458.05;;
5987;SDS011;3021;51.000;6.980;2023-11-18T14:25:23;820.37;;;465.83;;
5987;SDS011;3021;51.000;6.980;2023-11-18T14:27:49;819.05;;;457.55;;
5987;SDS011;3021;51.000;6.980;2023-11-18T14:30:14;822.45;;;466.90;;
5987;SDS011;3021;51.000;6.980;2023-11-18T14:32:41;820.55;;;453.50;;
5987;SDS011;3021;51.000;6.980;2023-11-18T14:35:07;817.70;;;452.25;;
5987;SDS011;3021;51.000;6.980;2023-11-18T14:37:37;815.55;;;448.83;;
5987;SDS011;3021;51.000;6.980;2023-11-18T14:40:06;818.55;;;451.92;;
5987;SDS011;3021;51.000;6.980;2023-11-18T14:42:35;820.25;;;452.55;;
5987;SDS011;3021;51.000;6.980;2023-11-18T14:45:00;822.00;;;461.20;;
5987;SDS011;3021;51.000;6.980;2023-11-18T14:47:26;818.70;;;454.42;;
5987;SDS011;3021;51.000;6.980;2023-11-18T14:49:51;825.03;;;459.23;;
5987;SDS011;3021;51.000;6.980;2023-11-18T14:52:17;821.20;;;462.08;;
5987;SDS011;3021;51.000;6.980;2023-11-18T14:54:43;821.55;;;457.55;;
5987;SDS011;3021;51.000;6.980;2023-11-18T14:57:08;816.43;;;448.83;;
5987;SDS011;3021;51.000;6.980;2023-11-18T14:59:33;822.70;;;460.07;;
5987;SDS011;3021;51.000;6.980;2023-11-18T15:01:59;821.83;;;463.17;;
5987;SDS011;3021;51.000;6.980;2023-11-18T15:04:25;821.07;;;466.77;;
5987;SDS011;3021;51.000;6.980;2023-11-18T15:06:51;818.45;;;449.13;;
5987;SDS011;3021;51.000;6.980;2023-11-18T15:09:18;815.83;;;440.67;;
5987;SDS011;3021;51.000;6.980;2023-11-18T15:11:45;817.88;;;441.52;;